createdAt,value
2023-05-12T00:01:28.793Z,96780.28
2023-05-12T00:03:55.565Z,96785.41
2023-05-12T00:06:22.290Z,96785.53
2023-05-12T00:08:48.820Z,96782.78
2023-05-12T00:11:15.422Z,96787.72
2023-05-12T00:13:41.965Z,96780.66
2023-05-12T00:16:08.951Z,96779.84
2023-05-12T00:18:35.666Z,96786.88
2023-05-12T00:21:02.181Z,96786.03
2023-05-12T00:23:28.652Z,96781.72
2023-05-12T00:25:55.217Z,96787.09
2023-05-12T00:28:21.746Z,96783.72
2023-05-12T00:30:48.205Z,96781.00
2023-05-12T00:33:14.742Z,96779.22
2023-05-12T00:35:41.318Z,96773.94
2023-05-12T00:38:07.842Z,96765.22
2023-05-12T00:40:34.396Z,96774.91
2023-05-12T00:43:00.907Z,96771.44
2023-05-12T00:45:29.738Z,96771.31
2023-05-12T00:47:57.135Z,96770.50
2023-05-12T00:50:24.234Z,96764.50
2023-05-12T00:52:50.886Z,96766.06
2023-05-12T00:55:17.675Z,96762.59
2023-05-12T00:57:44.400Z,96760.91
2023-05-12T01:00:11.896Z,96753.84
2023-05-12T01:02:39.079Z,96763.41
2023-05-12T01:05:06.579Z,96759.97
2023-05-12T01:07:33.722Z,96763.41
2023-05-12T01:10:00.355Z,96762.59
2023-05-12T01:12:28.065Z,96761.03
2023-05-12T01:14:57.104Z,96769.75
2023-05-12T01:17:35.072Z,96767.84
2023-05-12T01:20:04.610Z,96773.31
2023-05-12T01:22:33.565Z,96769.00
2023-05-12T01:25:02.653Z,96768.91
2023-05-12T01:27:30.016Z,96766.28
2023-05-12T01:29:59.410Z,96764.72
2023-05-12T01:32:26.438Z,96764.72
2023-05-12T01:34:53.091Z,96769.25
2023-05-12T01:37:19.860Z,96760.53
2023-05-12T01:39:46.413Z,96760.41
2023-05-12T01:42:13.103Z,96761.22
2023-05-12T01:44:39.641Z,96763.88
2023-05-12T01:47:09.854Z,96764.91
2023-05-12T01:49:36.429Z,96760.28
2023-05-12T01:52:03.104Z,96764.59
2023-05-12T01:54:29.723Z,96763.75
2023-05-12T01:56:56.213Z,96766.72
2023-05-12T01:59:22.854Z,96763.03
2023-05-12T02:01:49.613Z,96768.28
2023-05-12T02:04:22.507Z,96766.50
2023-05-12T02:06:49.002Z,96767.66
2023-05-12T02:09:15.495Z,96763.88
2023-05-12T02:11:41.987Z,96764.59
2023-05-12T02:14:08.605Z,96764.50
2023-05-12T02:16:35.192Z,96766.28
2023-05-12T02:19:01.833Z,96766.16
2023-05-12T02:21:28.418Z,96770.50
2023-05-12T02:23:56.279Z,96758.16
2023-05-12T02:26:22.905Z,96771.31
2023-05-12T02:28:51.734Z,96769.50
2023-05-12T02:31:18.333Z,96769.31
2023-05-12T02:33:44.941Z,96764.88
2023-05-12T02:36:12.844Z,96772.53
2023-05-12T02:38:54.954Z,96770.88
2023-05-12T02:41:21.495Z,96759.50
2023-05-12T02:43:48.030Z,96761.19
2023-05-12T02:46:14.547Z,96760.22
2023-05-12T02:48:41.105Z,96756.16
2023-05-12T02:51:10.506Z,96760.56
2023-05-12T02:53:39.222Z,96760.44
2023-05-12T02:56:10.797Z,96763.81
2023-05-12T02:58:37.577Z,96760.22
2023-05-12T03:02:12.070Z,96766.56
2023-05-12T03:04:38.614Z,96759.59
2023-05-12T03:10:25.789Z,96751.47
2023-05-12T03:17:40.858Z,96754.09
2023-05-12T03:20:10.196Z,96764.75
2023-05-12T03:22:36.768Z,96766.56
2023-05-12T03:28:03.647Z,96760.22
2023-05-12T03:30:30.150Z,96763.69
2023-05-12T03:32:56.683Z,96767.28
2023-05-12T03:35:36.006Z,96762.63
2023-05-12T03:38:02.502Z,96765.38
2023-05-12T03:45:04.842Z,96769.81
2023-05-12T03:55:55.945Z,96776.22
2023-05-12T03:58:23.333Z,96780.44
2023-05-12T04:00:50.814Z,96775.91
2023-05-12T04:09:32.968Z,96772.31
2023-05-12T04:11:59.347Z,96777.59
2023-05-12T04:14:35.163Z,96773.16
2023-05-12T04:17:06.029Z,96776.53
2023-05-12T04:19:32.575Z,96782.75
2023-05-12T04:21:59.051Z,96781.78
2023-05-12T04:24:25.644Z,96786.81
2023-05-12T04:26:52.161Z,96794.47
2023-05-12T04:29:18.912Z,96787.78
2023-05-12T04:31:45.470Z,96794.47
2023-05-12T04:34:18.041Z,96792.84
2023-05-12T04:36:44.526Z,96800.09
2023-05-12T04:39:13.707Z,96801.88
2023-05-12T04:41:40.242Z,96798.28
2023-05-12T04:48:27.712Z,96798.91
2023-05-12T04:51:00.272Z,96798.59
2023-05-12T04:53:27.674Z,96803.38
2023-05-12T04:56:12.797Z,96810.22
2023-05-12T04:58:39.323Z,96811.91
2023-05-12T05:01:05.928Z,96809.28
2023-05-12T05:03:37.606Z,96809.41
2023-05-12T05:09:50.203Z,96808.53
2023-05-12T05:12:30.660Z,96811.41
2023-05-12T05:15:03.105Z,96814.16
2023-05-12T05:17:29.685Z,96815.00
2023-05-12T05:19:59.356Z,96817.63
2023-05-12T05:22:27.337Z,96823.75
2023-05-12T05:24:53.918Z,96829.84
2023-05-12T05:27:20.733Z,96821.00
2023-05-12T05:29:47.339Z,96821.94
2023-05-12T05:32:13.859Z,96822.88
2023-05-12T05:34:40.483Z,96828.91
2023-05-12T05:37:07.454Z,96831.28
2023-05-12T05:39:33.981Z,96829.28
2023-05-12T05:42:00.573Z,96826.28
2023-05-12T05:44:27.083Z,96832.19
2023-05-12T05:46:53.633Z,96832.81
2023-05-12T05:49:20.158Z,96830.66
2023-05-12T05:51:46.720Z,96831.16
2023-05-12T05:54:13.281Z,96843.97
2023-05-12T05:56:39.763Z,96844.72
2023-05-12T05:59:06.343Z,96843.78
2023-05-12T06:01:33.060Z,96847.00
2023-05-12T06:03:59.838Z,96842.97
2023-05-12T06:06:26.523Z,96846.31
2023-05-12T06:08:55.977Z,96844.81
2023-05-12T06:11:22.720Z,96846.03
2023-05-12T06:13:49.264Z,96843.88
2023-05-12T06:16:15.846Z,96849.88
2023-05-12T06:18:42.543Z,96854.09
2023-05-12T06:21:09.617Z,96851.66
2023-05-12T06:23:36.205Z,96849.97
2023-05-12T06:26:03.180Z,96856.19
2023-05-12T06:28:29.732Z,96858.38
2023-05-12T06:30:56.325Z,96855.97
2023-05-12T06:33:22.826Z,96865.69
2023-05-12T06:35:49.350Z,96868.22
2023-05-12T06:38:15.906Z,96869.66
2023-05-12T06:40:42.421Z,96869.44
2023-05-12T06:43:08.933Z,96872.66
2023-05-12T06:45:35.499Z,96875.47
2023-05-12T06:48:03.207Z,96872.38
2023-05-12T06:50:29.831Z,96870.09
2023-05-12T06:52:56.324Z,96875.97
2023-05-12T06:55:23.443Z,96867.16
2023-05-12T06:57:57.476Z,96871.69
2023-05-12T07:00:24.886Z,96874.69
2023-05-12T07:02:52.150Z,96871.78
2023-05-12T07:05:19.178Z,96876.44
2023-05-12T07:07:45.847Z,96869.34
2023-05-12T07:10:12.415Z,96874.34
2023-05-12T07:12:39.331Z,96874.03
2023-05-12T07:15:06.836Z,96876.25
2023-05-12T07:17:33.375Z,96882.16
2023-05-12T07:20:00.001Z,96872.00
2023-05-12T07:22:26.818Z,96875.47
2023-05-12T07:24:53.443Z,96869.72
2023-05-12T07:30:08.658Z,96874.13
2023-05-12T07:32:35.332Z,96872.03
2023-05-12T07:35:02.053Z,96870.81
2023-05-12T07:37:28.640Z,96874.44
2023-05-12T07:40:00.705Z,96876.75
2023-05-12T07:42:29.950Z,96875.97
2023-05-12T07:45:02.571Z,96879.03
2023-05-12T07:47:31.238Z,96876.34
2023-05-12T07:49:58.141Z,96878.81
2023-05-12T07:52:24.961Z,96878.72
2023-05-12T07:54:51.498Z,96883.97
2023-05-12T07:57:18.036Z,96883.16
2023-05-12T07:59:44.594Z,96872.38
2023-05-12T08:02:11.157Z,96874.03
2023-05-12T08:04:37.823Z,96878.84
2023-05-12T08:07:04.729Z,96884.72
2023-05-12T08:09:31.163Z,96882.56
2023-05-12T08:11:57.720Z,96883.19
2023-05-12T08:14:25.667Z,96884.81
2023-05-12T08:16:52.371Z,96876.34
2023-05-12T08:19:19.019Z,96883.22
2023-05-12T08:21:45.685Z,96878.78
2023-05-12T08:24:12.232Z,96882.03
2023-05-12T08:26:38.736Z,96882.69
2023-05-12T08:29:06.640Z,96884.09
2023-05-12T08:31:33.445Z,96885.50
2023-05-12T08:34:09.867Z,96884.38
2023-05-12T08:36:38.744Z,96881.56
2023-05-12T08:39:05.384Z,96877.91
2023-05-12T08:41:38.843Z,96880.66
2023-05-12T08:44:06.511Z,96887.63
2023-05-12T08:46:33.337Z,96876.38
2023-05-12T08:49:02.509Z,96886.03
2023-05-12T08:51:31.691Z,96878.88
2023-05-12T08:53:58.989Z,96888.56
2023-05-12T08:58:56.454Z,96888.38
2023-05-12T09:01:23.274Z,96891.53
2023-05-12T09:03:52.931Z,96896.56
2023-05-12T09:06:19.771Z,96892.38
2023-05-12T09:08:46.333Z,96894.28
2023-05-12T09:11:13.781Z,96897.41
2023-05-12T09:14:02.691Z,96894.25
2023-05-12T09:16:31.765Z,96901.53
2023-05-12T09:19:00.222Z,96904.97
2023-05-12T09:21:27.812Z,96893.97
2023-05-12T09:24:03.199Z,96897.16
2023-05-12T09:26:29.844Z,96898.16
2023-05-12T09:29:07.187Z,96898.56
2023-05-12T09:31:34.565Z,96890.78
2023-05-12T09:34:13.420Z,96898.53
2023-05-12T09:36:42.926Z,96902.25
2023-05-12T09:39:10.447Z,96898.44
2023-05-12T09:41:37.766Z,96898.22
2023-05-12T09:44:05.378Z,96902.16
2023-05-12T09:46:35.652Z,96902.16
2023-05-12T09:49:07.921Z,96907.59
2023-05-12T09:51:37.879Z,96913.16
2023-05-12T09:54:07.591Z,96903.31
2023-05-12T09:56:54.198Z,96904.25
2023-05-12T09:59:21.326Z,96904.19
2023-05-12T10:01:50.392Z,96904.16
2023-05-12T10:04:17.342Z,96891.31
2023-05-12T10:06:53.153Z,96900.03
2023-05-12T10:09:39.208Z,96899.84
2023-05-12T10:12:06.487Z,96901.00
2023-05-12T10:14:33.789Z,96906.41
2023-05-12T10:17:01.798Z,96902.19
2023-05-12T10:19:34.820Z,96901.81
2023-05-12T10:22:01.989Z,96902.88
2023-05-12T10:24:54.428Z,96903.69
2023-05-12T10:27:22.476Z,96904.69
2023-05-12T10:29:51.502Z,96911.47
2023-05-12T10:32:19.565Z,96905.34
2023-05-12T10:34:46.409Z,96905.16
2023-05-12T10:37:13.100Z,96908.00
2023-05-12T10:39:52.193Z,96907.34
2023-05-12T10:42:26.891Z,96908.28
2023-05-12T10:44:54.386Z,96907.28
2023-05-12T10:47:26.935Z,96907.06
2023-05-12T10:49:59.721Z,96906.91
2023-05-12T10:52:26.339Z,96910.72
2023-05-12T10:55:00.856Z,96907.06
2023-05-12T10:57:28.885Z,96909.53
2023-05-12T11:00:01.011Z,96916.06
2023-05-12T11:02:32.362Z,96907.53
2023-05-12T11:05:05.312Z,96914.31
2023-05-12T11:07:35.094Z,96909.84
2023-05-12T11:10:04.750Z,96912.81
2023-05-12T11:12:35.438Z,96908.44
2023-05-12T11:15:02.516Z,96916.31
2023-05-12T11:17:29.303Z,96920.13
2023-05-12T11:19:59.124Z,96917.06
2023-05-12T11:22:25.947Z,96932.78
2023-05-12T11:24:53.020Z,96923.31
2023-05-12T11:27:21.269Z,96926.34
2023-05-12T11:29:59.708Z,96936.13
2023-05-12T11:32:26.740Z,96933.44
2023-05-12T11:34:53.342Z,96933.31
2023-05-12T11:37:21.125Z,96932.81
2023-05-12T11:39:48.183Z,96933.84
2023-05-12T11:42:16.291Z,96938.38
2023-05-12T11:44:49.517Z,96932.81
2023-05-12T11:47:17.189Z,96938.25
2023-05-12T11:49:50.988Z,96935.75
2023-05-12T11:52:19.643Z,96929.19
2023-05-12T11:55:06.051Z,96930.41
2023-05-12T11:57:36.341Z,96943.41
2023-05-12T12:00:07.933Z,96942.19
2023-05-12T12:02:36.754Z,96951.94
2023-05-12T12:05:03.573Z,96937.47
2023-05-12T12:07:32.044Z,96945.00
2023-05-12T12:09:59.538Z,96938.38
2023-05-12T12:12:26.061Z,96934.63
2023-05-12T12:14:52.540Z,96944.31
2023-05-12T12:17:19.035Z,96943.03
2023-05-12T12:19:47.764Z,96945.63
2023-05-12T12:22:14.434Z,96940.47
2023-05-12T12:24:40.984Z,96939.31
2023-05-12T12:27:07.594Z,96937.19
2023-05-12T12:29:34.197Z,96935.84
2023-05-12T12:32:00.754Z,96928.56
2023-05-12T12:34:27.195Z,96936.53
2023-05-12T12:36:53.750Z,96938.88
2023-05-12T12:39:23.186Z,96936.75
2023-05-12T12:41:50.236Z,96936.94
2023-05-12T12:44:17.757Z,96939.31
2023-05-12T12:46:44.361Z,96924.16
2023-05-12T12:49:11.305Z,96935.00
2023-05-12T12:51:45.719Z,96939.75
2023-05-12T12:54:13.147Z,96942.56
2023-05-12T12:56:39.731Z,96931.19
2023-05-12T12:59:06.474Z,96936.44
2023-05-12T13:01:33.965Z,96932.53
2023-05-12T13:04:01.121Z,96928.25
2023-05-12T13:06:27.776Z,96936.81
2023-05-12T13:08:54.381Z,96935.00
2023-05-12T13:11:20.885Z,96940.44
2023-05-12T13:13:47.453Z,96928.81
2023-05-12T13:16:14.061Z,96932.84
2023-05-12T13:18:40.700Z,96923.84
2023-05-12T13:21:07.323Z,96935.31
2023-05-12T13:23:33.836Z,96927.03
2023-05-12T13:26:00.478Z,96922.50
2023-05-12T13:28:26.971Z,96927.41
2023-05-12T13:30:53.505Z,96923.25
2023-05-12T13:33:20.483Z,96925.28
2023-05-12T13:35:47.010Z,96929.97
2023-05-12T13:38:13.748Z,96920.19
2023-05-12T13:40:41.595Z,96923.16
2023-05-12T13:43:08.509Z,96920.38
2023-05-12T13:45:34.989Z,96924.03
2023-05-12T13:48:01.565Z,96914.25
2023-05-12T13:50:28.180Z,96923.28
2023-05-12T13:52:54.726Z,96922.72
2023-05-12T13:55:22.079Z,96923.63
2023-05-12T13:57:49.132Z,96914.69
2023-05-12T14:00:17.305Z,96913.72
2023-05-12T14:02:44.062Z,96909.06
2023-05-12T14:05:10.849Z,96926.09
2023-05-12T14:07:37.575Z,96923.94
2023-05-12T14:10:04.196Z,96927.25
2023-05-12T14:12:31.210Z,96923.53
2023-05-12T14:15:07.288Z,96931.22
2023-05-12T14:17:44.516Z,96925.63
2023-05-12T14:20:11.595Z,96925.19
2023-05-12T14:22:38.203Z,96931.16
2023-05-12T14:25:05.083Z,96925.09
2023-05-12T14:27:31.608Z,96925.00
2023-05-12T14:29:58.107Z,96928.59
2023-05-12T14:32:24.736Z,96940.03
2023-05-12T14:34:51.330Z,96935.03
2023-05-12T14:37:17.840Z,96927.34
2023-05-12T14:39:44.392Z,96931.56
2023-05-12T14:42:10.876Z,96936.19
2023-05-12T14:44:37.586Z,96943.31
2023-05-12T14:47:04.201Z,96933.09
2023-05-12T14:49:30.710Z,96936.84
2023-05-12T14:51:57.381Z,96934.09
2023-05-12T14:54:25.953Z,96929.78
2023-05-12T14:56:53.066Z,96934.63
2023-05-12T14:59:19.722Z,96943.75
2023-05-12T15:01:46.602Z,96942.44
2023-05-12T15:04:13.347Z,96945.63
2023-05-12T15:06:40.058Z,96951.31
2023-05-12T15:09:07.287Z,96946.38
2023-05-12T15:11:33.892Z,96950.63
2023-05-12T15:14:00.414Z,96944.53
2023-05-12T15:16:28.037Z,96952.09
2023-05-12T15:18:54.909Z,96945.34
2023-05-12T15:21:24.428Z,96948.94
2023-05-12T15:23:50.956Z,96942.06
2023-05-12T15:26:31.878Z,96949.88
2023-05-12T15:29:00.670Z,96948.63
2023-05-12T15:31:29.329Z,96947.38
2023-05-12T15:33:59.285Z,96950.34
2023-05-12T15:36:25.851Z,96951.88
2023-05-12T15:38:52.400Z,96952.16
2023-05-12T15:41:19.018Z,96956.06
2023-05-12T15:43:45.605Z,96946.69
2023-05-12T15:46:12.287Z,96949.38
2023-05-12T15:48:39.385Z,96949.94
2023-05-12T15:51:06.595Z,96950.78
2023-05-12T15:53:33.266Z,96957.91
2023-05-12T15:56:03.982Z,96962.19
2023-05-12T15:58:31.388Z,96958.72
2023-05-12T16:00:58.129Z,96954.00
2023-05-12T16:03:24.893Z,96953.41
2023-05-12T16:05:51.773Z,96945.25
2023-05-12T16:08:18.701Z,96952.25
2023-05-12T16:10:45.195Z,96959.00
2023-05-12T16:13:11.746Z,96952.00
2023-05-12T16:15:38.258Z,96955.66
2023-05-12T16:18:06.980Z,96955.66
2023-05-12T16:20:35.150Z,96961.75
2023-05-12T16:23:02.427Z,96961.22
2023-05-12T16:25:29.126Z,96962.78
2023-05-12T16:27:55.957Z,96957.88
2023-05-12T16:30:22.621Z,96966.41
2023-05-12T16:32:49.367Z,96960.16
2023-05-12T16:35:15.995Z,96958.69
2023-05-12T16:37:42.682Z,96954.81
2023-05-12T16:40:09.698Z,96963.34
2023-05-12T16:42:36.669Z,96962.28
2023-05-12T16:45:03.350Z,96963.16
2023-05-12T16:47:29.924Z,96967.44
2023-05-12T16:49:58.100Z,96959.72
2023-05-12T16:52:25.523Z,96978.84
2023-05-12T16:54:53.193Z,96975.66
2023-05-12T16:57:20.487Z,96980.06
2023-05-12T16:59:48.466Z,96972.19
2023-05-12T17:02:15.420Z,96975.44
2023-05-12T17:04:42.017Z,96970.63
2023-05-12T17:07:09.131Z,96970.16
2023-05-12T17:09:35.671Z,96983.81
2023-05-12T17:12:02.829Z,96981.81
2023-05-12T17:14:29.293Z,96980.94
2023-05-12T17:16:55.828Z,96983.72
2023-05-12T17:19:22.399Z,96978.81
2023-05-12T17:21:48.935Z,96980.94
2023-05-12T17:24:15.562Z,96982.16
2023-05-12T17:26:42.244Z,96987.66
2023-05-12T17:29:08.979Z,96985.03
2023-05-12T17:31:37.335Z,96988.03
2023-05-12T17:34:04.031Z,96985.28
2023-05-12T17:36:31.052Z,96991.63
2023-05-12T17:38:57.567Z,96993.56
2023-05-12T17:41:24.853Z,97003.41
2023-05-12T17:43:52.480Z,96996.44
2023-05-12T17:46:19.163Z,97002.53
2023-05-12T17:48:45.848Z,97007.72
2023-05-12T17:51:12.351Z,97011.31
2023-05-12T17:53:38.930Z,97014.53
2023-05-12T17:56:05.842Z,97009.25
2023-05-12T17:58:32.443Z,97010.44
2023-05-12T18:00:59.105Z,97009.81
2023-05-12T18:03:25.722Z,97011.88
2023-05-12T18:05:53.419Z,97013.53
2023-05-12T18:08:20.240Z,97018.22
2023-05-12T18:10:46.880Z,97009.38
2023-05-12T18:13:14.624Z,97014.16
2023-05-12T18:15:41.865Z,97008.97
2023-05-12T18:18:10.078Z,97014.47
2023-05-12T18:20:37.009Z,97015.69
2023-05-12T18:23:03.556Z,97009.56
2023-05-12T18:25:30.117Z,97015.91
2023-05-12T18:27:56.808Z,97017.56
2023-05-12T18:30:23.336Z,97013.22
2023-05-12T18:32:50.728Z,97013.22
2023-05-12T18:35:17.394Z,97010.09
2023-05-12T18:37:44.059Z,97019.81
2023-05-12T18:40:11.270Z,97023.41
2023-05-12T18:42:38.608Z,97015.38
2023-05-12T18:45:05.860Z,97019.56
2023-05-12T18:47:33.450Z,97017.78
2023-05-12T18:50:00.174Z,97016.22
2023-05-12T18:52:26.716Z,97022.66
2023-05-12T18:54:53.210Z,97022.50
2023-05-12T18:57:19.722Z,97032.13
2023-05-12T18:59:46.314Z,97027.78
2023-05-12T19:02:12.978Z,97036.88
2023-05-12T19:04:39.572Z,97041.28
2023-05-12T19:07:09.684Z,97034.44
2023-05-12T19:09:37.163Z,97040.59
2023-05-12T19:12:05.974Z,97040.59
2023-05-12T19:14:32.774Z,97040.81
2023-05-12T19:16:59.344Z,97039.13
2023-05-12T19:19:25.875Z,97034.81
2023-05-12T19:21:52.563Z,97043.53
2023-05-12T19:24:19.434Z,97043.78
2023-05-12T19:26:46.238Z,97041.25
2023-05-12T19:29:12.721Z,97038.84
2023-05-12T19:31:39.372Z,97042.31
2023-05-12T19:34:06.258Z,97045.06
2023-05-12T19:36:32.926Z,97038.94
2023-05-12T19:39:00.404Z,97041.56
2023-05-12T19:41:28.037Z,97040.88
2023-05-12T19:43:55.659Z,97046.78
2023-05-12T19:46:22.577Z,97041.56
2023-05-12T19:48:49.194Z,97047.72
2023-05-12T19:51:15.796Z,97041.56
2023-05-12T19:53:43.708Z,97045.28
2023-05-12T19:56:10.346Z,97045.19
2023-05-12T19:58:36.860Z,97044.56
2023-05-12T20:01:03.433Z,97043.69
2023-05-12T20:03:30.051Z,97045.41
2023-05-12T20:05:56.877Z,97038.34
2023-05-12T20:08:23.395Z,97037.72
2023-05-12T20:10:49.881Z,97039.50
2023-05-12T20:13:16.461Z,97042.88
2023-05-12T20:15:44.093Z,97035.31
2023-05-12T20:18:12.707Z,97032.78
2023-05-12T20:20:39.344Z,97039.22
2023-05-12T20:23:05.866Z,97039.09
2023-05-12T20:25:33.168Z,97041.72
2023-05-12T20:27:59.965Z,97033.00
2023-05-12T20:30:26.856Z,97037.53
2023-05-12T20:32:53.515Z,97040.06
2023-05-12T20:35:20.537Z,97038.16
2023-05-12T20:37:47.600Z,97033.13
2023-05-12T20:40:14.319Z,97033.94
2023-05-12T20:42:40.887Z,97029.75
2023-05-12T20:45:08.712Z,97034.81
2023-05-12T20:47:36.627Z,97026.28
2023-05-12T20:50:05.695Z,97030.66
2023-05-12T20:52:42.098Z,97029.31
2023-05-12T20:55:09.606Z,97027.63
2023-05-12T20:57:37.733Z,97026.78
2023-05-12T21:00:04.902Z,97026.03
2023-05-12T21:02:31.658Z,97021.63
2023-05-12T21:04:58.314Z,97033.00
2023-05-12T21:07:24.967Z,97028.69
2023-05-12T21:09:51.516Z,97030.47
2023-05-12T21:12:18.137Z,97034.53
2023-05-12T21:14:45.185Z,97035.25
2023-05-12T21:17:12.323Z,97033.66
2023-05-12T21:19:40.056Z,97031.88
2023-05-12T21:22:07.653Z,97029.44
2023-05-12T21:24:34.318Z,97034.13
2023-05-12T21:27:05.079Z,97029.78
2023-05-12T21:29:32.735Z,97035.06
2023-05-12T21:32:00.068Z,97034.94
2023-05-12T21:34:27.012Z,97036.75
2023-05-12T21:36:54.800Z,97034.31
2023-05-12T21:39:22.052Z,97035.72
2023-05-12T21:41:49.002Z,97034.75
2023-05-12T21:44:16.233Z,97033.91
2023-05-12T21:46:42.949Z,97036.16
2023-05-12T21:49:09.880Z,97036.97
2023-05-12T21:51:36.492Z,97028.47
2023-05-12T21:54:03.217Z,97034.78
2023-05-12T21:56:29.784Z,97029.53
2023-05-12T21:58:56.425Z,97037.31
2023-05-12T22:01:23.135Z,97034.16
2023-05-12T22:03:49.875Z,97029.94
2023-05-12T22:06:16.931Z,97044.16
2023-05-12T22:08:43.569Z,97040.81
2023-05-12T22:11:11.210Z,97041.75
2023-05-12T22:13:38.015Z,97042.69
2023-05-12T22:16:04.947Z,97040.81
2023-05-12T22:18:32.029Z,97041.66
2023-05-12T22:20:58.910Z,97037.31
2023-05-12T22:23:25.576Z,97029.31
2023-05-12T22:25:52.291Z,97032.91
2023-05-12T22:28:18.816Z,97036.25
2023-05-12T22:30:45.520Z,97032.16
2023-05-12T22:33:12.122Z,97032.16
2023-05-12T22:35:38.753Z,97039.84
2023-05-12T22:38:05.817Z,97034.81
2023-05-12T22:40:33.665Z,97031.22
2023-05-12T22:43:00.249Z,97029.19
2023-05-12T22:45:26.889Z,97030.38
2023-05-12T22:47:53.598Z,97038.19
2023-05-12T22:50:20.730Z,97032.06
2023-05-12T22:52:47.445Z,97032.69
2023-05-12T22:55:14.134Z,97031.22
2023-05-12T22:57:41.048Z,97026.91
2023-05-12T23:00:08.254Z,97032.81
2023-05-12T23:02:34.978Z,97032.28
2023-05-12T23:05:01.602Z,97027.13
2023-05-12T23:07:28.239Z,97029.53
2023-05-12T23:09:54.757Z,97033.84
2023-05-12T23:12:21.319Z,97028.59
2023-05-12T23:14:47.907Z,97026.06
2023-05-12T23:17:14.405Z,97015.72
2023-05-12T23:19:40.939Z,97016.69
2023-05-12T23:22:07.467Z,97020.06
2023-05-12T23:24:35.960Z,97014.91
2023-05-12T23:27:02.572Z,97019.94
2023-05-12T23:29:29.176Z,97019.22
2023-05-12T23:31:56.460Z,97016.78
2023-05-12T23:34:23.120Z,97014.03
2023-05-12T23:36:49.761Z,97018.25
2023-05-12T23:39:16.528Z,97013.97
2023-05-12T23:41:43.095Z,97017.72
2023-05-12T23:44:09.589Z,97013.31
2023-05-12T23:46:36.576Z,97010.59
2023-05-12T23:49:03.711Z,97014.03
2023-05-12T23:51:30.250Z,97018.47
2023-05-12T23:53:56.777Z,97008.91
2023-05-12T23:56:23.351Z,97011.41
2023-05-12T23:58:49.954Z,97009.75
